NOAA Web Site Link Tides and Currents Home Page Transparent placeholder image

PORTS® Data Listing: 8555889 Brandywine Shoal Light, DE

CO-OPS RAW PORTS DATA

************************      PRELIMINARY DATA      ************************** 

     THIS RAW DATA HAS NOT BEEN SUBJECT TO THE NATIONAL OCEAN SERVICE'S        
     QUALITY CONTROL OR QUALITY ASSURANCE PROCEDURES AND DOES NOT MEET         
     THE CRITERIA AND STANDARDS OF OFFICIAL NATIONAL OCEAN SERVICE             
     DATA.  IT IS RELEASED FOR LIMITED PUBLIC USE AS PRELIMINARY DATA TO       
     BE USED ONLY WITH APPROPRIATE CAUTION.                                    

************************      PRELIMINARY DATA      ************************** 


       CD   -   Calendar date
       T    -   Time
       TZ   -   Timezone
       PW   -   Predicted water level (feet above MLLW)
       OW   -   Observed water level (feet above MLLW)
       WS   -   Wind speed (knots)
       WD   -   Wind direction (degrees true)
       WG   -   Wind gust (knots)
       AT   -   Air temperature (degrees farenheit)
       WT   -   Water temperature (degrees farenheit)
       AP   -   Air pressure (millibars)
       SA   -   Salinty (PSU - Practical Salinity Units)
       SG   -   Specific gravity
       RH   -   Relative humidity
       AG   -   Air gap (feet)
       VI   -   Visibility (nautical miles)

       ** NOTE **
       A variable that has its data fields filled with "9"s, indicates that
       data was not collected for that sample period.
       **********


STATION NAME: Brandywine Shoal Light (8555889)
****************************************************************************************************
    CD       T    TZ    PW     OW    WS   WD   WG    AT    WT    AP    SA    SG     RH    AG   VI
****************************************************************************************************
2018/08/19 18:30 EDT    4.18   5.53   18   60   20  73.4 -99.9 1015.6 -9.9 -9.999 -99.9 -99.99 -9.99
2018/08/19 18:36 EDT    4.09   5.45   16   53   19  73.4 -99.9 1015.6 -9.9 -9.999 -99.9 -99.99 -9.99
2018/08/19 18:42 EDT    4.00   5.35   17   46   19  73.2 -99.9 1015.6 -9.9 -9.999 -99.9 -99.99 -9.99
2018/08/19 18:48 EDT    3.90   5.29   18   59   20  72.9 -99.9 1015.7 -9.9 -9.999 -99.9 -99.99 -9.99
2018/08/19 18:54 EDT    3.81   5.18   19   63   20  72.9 -99.9 1015.7 -9.9 -9.999 -99.9 -99.99 -9.99
2018/08/19 19:00 EDT    3.71   5.09   16   65   20  73.0 -99.9 1015.9 -9.9 -9.999 -99.9 -99.99 -9.99
2018/08/19 19:06 EDT    3.61   5.00   16   54   18  73.0 -99.9 1016.0 -9.9 -9.999 -99.9 -99.99 -9.99
2018/08/19 19:12 EDT    3.51   4.89   17   57   19  73.0 -99.9 1016.0 -9.9 -9.999 -99.9 -99.99 -9.99
2018/08/19 19:18 EDT    3.40   4.79   17   48   20  73.0 -99.9 1016.0 -9.9 -9.999 -99.9 -99.99 -9.99
2018/08/19 19:24 EDT    3.30   4.66   19   53   21  73.0 -99.9 1015.7 -9.9 -9.999 -99.9 -99.99 -9.99
2018/08/19 19:30 EDT    3.19   4.56   18   58   20  73.0 -99.9 1015.8 -9.9 -9.999 -99.9 -99.99 -9.99
2018/08/19 19:36 EDT    3.08   4.47   19   54   21  73.0 -99.9 1015.9 -9.9 -9.999 -99.9 -99.99 -9.99
2018/08/19 19:42 EDT    2.97   4.36   21   60   23  73.0 -99.9 1015.7 -9.9 -9.999 -99.9 -99.99 -9.99
2018/08/19 19:48 EDT    2.86   4.26   19   59   23  73.2 -99.9 1015.9 -9.9 -9.999 -99.9 -99.99 -9.99
2018/08/19 19:54 EDT    2.75   4.15   22   63   24  72.7 -99.9 1015.8 -9.9 -9.999 -99.9 -99.99 -9.99
2018/08/19 20:00 EDT    2.64   4.05   23   61   24  72.5 -99.9 1015.8 -9.9 -9.999 -99.9 -99.99 -9.99
2018/08/19 20:06 EDT    2.53   3.94   21   60   24  72.5 -99.9 1015.8 -9.9 -9.999 -99.9 -99.99 -9.99
2018/08/19 20:12 EDT    2.42   3.84   19   62   22  72.7 -99.9 1016.0 -9.9 -9.999 -99.9 -99.99 -9.99
2018/08/19 20:18 EDT    2.31   3.76   21   60   24  72.7 -99.9 1016.1 -9.9 -9.999 -99.9 -99.99 -9.99
2018/08/19 20:24 EDT    2.20   3.65   20   63   24  72.7 -99.9 1016.0 -9.9 -9.999 -99.9 -99.99 -9.99
2018/08/19 20:30 EDT    2.10   3.56   21   58   24  72.5 -99.9 1016.2 -9.9 -9.999 -99.9 -99.99 -9.99
2018/08/19 20:36 EDT    1.99   3.46   21   57   22  72.5 -99.9 1016.2 -9.9 -9.999 -99.9 -99.99 -9.99
2018/08/19 20:42 EDT    1.89   3.36   18   58   23  72.5 -99.9 1016.4 -9.9 -9.999 -99.9 -99.99 -9.99
2018/08/19 20:48 EDT    1.80   3.27   20   58   23  72.3 -99.9 1016.5 -9.9 -9.999 -99.9 -99.99 -9.99
2018/08/19 20:54 EDT    1.70   3.16   19   57   22  72.3 -99.9 1016.6 -9.9 -9.999 -99.9 -99.99 -9.99
2018/08/19 21:00 EDT    1.61   3.06   18   60   21  72.3 -99.9 1016.6 -9.9 -9.999 -99.9 -99.99 -9.99
2018/08/19 21:06 EDT    1.52   2.99   19   61   23  72.1 -99.9 1016.7 -9.9 -9.999 -99.9 -99.99 -9.99
2018/08/19 21:12 EDT    1.44   2.91   21   64   24  72.1 -99.9 1016.8 -9.9 -9.999 -99.9 -99.99 -9.99
2018/08/19 21:18 EDT    1.36   2.82   21   64   24  72.1 -99.9 1016.8 -9.9 -9.999 -99.9 -99.99 -9.99
2018/08/19 21:24 EDT    1.29   2.75   20   60   22  72.5 -99.9 1016.9 -9.9 -9.999 -99.9 -99.99 -9.99
2018/08/19 21:30 EDT    1.22   2.69   20   60   22  72.5 -99.9 1016.9 -9.9 -9.999 -99.9 -99.99 -9.99
2018/08/19 21:36 EDT    1.15   2.62   20   55   23  72.9 -99.9 1017.0 -9.9 -9.999 -99.9 -99.99 -9.99
2018/08/19 21:42 EDT    1.10   2.56   19   57   23  72.9 -99.9 1017.1 -9.9 -9.999 -99.9 -99.99 -9.99
2018/08/19 21:48 EDT    1.04   2.50   19   58   24  72.9 -99.9 1017.0 -9.9 -9.999 -99.9 -99.99 -9.99
2018/08/19 21:54 EDT    0.99   2.46   19   60   25  72.9 -99.9 1017.1 -9.9 -9.999 -99.9 -99.99 -9.99
2018/08/19 22:00 EDT    0.95   2.42   20   60   24  72.9 -99.9 1017.1 -9.9 -9.999 -99.9 -99.99 -9.99
2018/08/19 22:06 EDT    0.91   2.38   21   62   23  72.9 -99.9 1017.0 -9.9 -9.999 -99.9 -99.99 -9.99
2018/08/19 22:12 EDT    0.87   2.35   20   61   24  73.0 -99.9 1017.1 -9.9 -9.999 -99.9 -99.99 -9.99
2018/08/19 22:18 EDT    0.85   2.30   20   64   24  72.9 -99.9 1017.1 -9.9 -9.999 -99.9 -99.99 -9.99
2018/08/19 22:24 EDT    0.82   2.29   19   60   23  72.9 -99.9 1017.2 -9.9 -9.999 -99.9 -99.99 -9.99
2018/08/19 22:30 EDT    0.80   2.26   20   63   22  73.0 -99.9 1017.4 -9.9 -9.999 -99.9 -99.99 -9.99
2018/08/19 22:36 EDT    0.79   2.26   21   61   23  72.9 -99.9 1017.4 -9.9 -9.999 -99.9 -99.99 -9.99
2018/08/19 22:42 EDT    0.78   2.25   20   58   22  72.9 -99.9 1017.3 -9.9 -9.999 -99.9 -99.99 -9.99
2018/08/19 22:48 EDT    0.77   2.23   19   57   24  73.0 -99.9 1017.5 -9.9 -9.999 -99.9 -99.99 -9.99
2018/08/19 22:54 EDT    0.77   2.25   19   62   21  73.2 -99.9 1017.6 -9.9 -9.999 -99.9 -99.99 -9.99
2018/08/19 23:00 EDT    0.78   2.24   19   56   22  73.0 -99.9 1017.6 -9.9 -9.999 -99.9 -99.99 -9.99
2018/08/19 23:06 EDT    0.79   2.24   19   51   22  72.9 -99.9 1017.6 -9.9 -9.999 -99.9 -99.99 -9.99
2018/08/19 23:12 EDT    0.80   2.27   20   57   23  73.0 -99.9 1017.5 -9.9 -9.999 -99.9 -99.99 -9.99
2018/08/19 23:18 EDT    0.82   2.28   19   61   22  73.2 -99.9 1017.4 -9.9 -9.999 -99.9 -99.99 -9.99
2018/08/19 23:24 EDT    0.84   2.30   20   64   23  73.0 -99.9 1017.3 -9.9 -9.999 -99.9 -99.99 -9.99
2018/08/19 23:30 EDT    0.86   2.31   22   54   24  73.0 -99.9 1017.4 -9.9 -9.999 -99.9 -99.99 -9.99
2018/08/19 23:36 EDT    0.90   2.35   22   59   25  73.0 -99.9 1017.3 -9.9 -9.999 -99.9 -99.99 -9.99
2018/08/19 23:42 EDT    0.93   2.38   20   55   22  73.0 -99.9 1017.3 -9.9 -9.999 -99.9 -99.99 -9.99
2018/08/19 23:48 EDT    0.97   2.42   20   59   24  73.2 -99.9 1017.4 -9.9 -9.999 -99.9 -99.99 -9.99
2018/08/19 23:54 EDT    1.01   2.46   20   55   22  73.0 -99.9 1017.4 -9.9 -9.999 -99.9 -99.99 -9.99
2018/08/20 00:00 EDT    1.06   2.53   21   62   22  73.2 -99.9 1017.3 -9.9 -9.999 -99.9 -99.99 -9.99
2018/08/20 00:06 EDT    1.11   2.58   19   64   24  73.0 -99.9 1017.2 -9.9 -9.999 -99.9 -99.99 -9.99
2018/08/20 00:12 EDT    1.16   2.63   22   64   23  73.2 -99.9 1017.2 -9.9 -9.999 -99.9 -99.99 -9.99
2018/08/20 00:18 EDT    1.22   2.67   22   64   23  73.2 -99.9 1017.2 -9.9 -9.999 -99.9 -99.99 -9.99
2018/08/20 00:24 EDT    1.28   2.73   22   64   25  73.0 -99.9 1017.1 -9.9 -9.999 -99.9 -99.99 -9.99
2018/08/20 00:30 EDT    1.35   2.80   18   70   22  73.6 -99.9 1017.2 -9.9 -9.999 -99.9 -99.99 -9.99
2018/08/20 00:36 EDT    1.42   2.84   19   67   23  73.4 -99.9 1017.1 -9.9 -9.999 -99.9 -99.99 -9.99
2018/08/20 00:42 EDT    1.49   2.92   19   67   23  73.4 -99.9 1017.1 -9.9 -9.999 -99.9 -99.99 -9.99
2018/08/20 00:48 EDT    1.57   2.98   21   66   24  73.2 -99.9 1017.1 -9.9 -9.999 -99.9 -99.99 -9.99
2018/08/20 00:54 EDT    1.64   3.03   21   66   24  73.2 -99.9 1017.1 -9.9 -9.999 -99.9 -99.99 -9.99
2018/08/20 01:00 EDT    1.72   3.09   18   70   22  73.6 -99.9 1017.3 -9.9 -9.999 -99.9 -99.99 -9.99
2018/08/20 01:06 EDT    1.81   3.17   19   70   22  73.4 -99.9 1017.3 -9.9 -9.999 -99.9 -99.99 -9.99
2018/08/20 01:12 EDT    1.89   3.25   19   70   22  73.4 -99.9 1017.3 -9.9 -9.999 -99.9 -99.99 -9.99
2018/08/20 01:18 EDT    1.98   3.33   19   78   22  73.4 -99.9 1017.4 -9.9 -9.999 -99.9 -99.99 -9.99
2018/08/20 01:24 EDT    2.07   3.40   17   73   21  73.6 -99.9 1017.5 -9.9 -9.999 -99.9 -99.99 -9.99
2018/08/20 01:30 EDT    2.16   3.45   19   69   20  73.4 -99.9 1017.4 -9.9 -9.999 -99.9 -99.99 -9.99
2018/08/20 01:36 EDT    2.25   3.53   18   70   21  73.4 -99.9 1017.4 -9.9 -9.999 -99.9 -99.99 -9.99
2018/08/20 01:42 EDT    2.34   3.60   18   72   21  73.4 -99.9 1017.3 -9.9 -9.999 -99.9 -99.99 -9.99
2018/08/20 01:48 EDT    2.43   3.68   19   66   21  73.4 -99.9 1017.3 -9.9 -9.999 -99.9 -99.99 -9.99
2018/08/20 01:54 EDT    2.52   3.78   18   70   20  73.6 -99.9 1017.3 -9.9 -9.999 -99.9 -99.99 -9.99
2018/08/20 02:00 EDT    2.61   3.88   17   71   21  73.6 -99.9 1017.2 -9.9 -9.999 -99.9 -99.99 -9.99
2018/08/20 02:06 EDT    2.70   3.97   18   72   21  73.6 -99.9 1017.1 -9.9 -9.999 -99.9 -99.99 -9.99
2018/08/20 02:12 EDT    2.79   4.07   21   63   23  73.2 -99.9 1016.9 -9.9 -9.999 -99.9 -99.99 -9.99
2018/08/20 02:18 EDT    2.88   4.16   19   69   21  73.4 -99.9 1017.0 -9.9 -9.999 -99.9 -99.99 -9.99
2018/08/20 02:24 EDT    2.97   4.23   19   69   21  73.4 -99.9 1017.0 -9.9 -9.999 -99.9 -99.99 -9.99
2018/08/20 02:30 EDT    3.06   4.31   20   68   22  73.2 -99.9 1017.1 -9.9 -9.999 -99.9 -99.99 -9.99
2018/08/20 02:36 EDT    3.15   4.40   19   67   21  73.0 -99.9 1017.2 -9.9 -9.999 -99.9 -99.99 -9.99
2018/08/20 02:42 EDT    3.23   4.48   18   75   20  73.0 -99.9 1017.2 -9.9 -9.999 -99.9 -99.99 -9.99
2018/08/20 02:48 EDT    3.31   4.51   19   68   21  73.0 -99.9 1017.2 -9.9 -9.999 -99.9 -99.99 -9.99
2018/08/20 02:54 EDT    3.39   4.60   19   68   21  73.0 -99.9 1017.2 -9.9 -9.999 -99.9 -99.99 -9.99
2018/08/20 03:00 EDT    3.47   4.67   19   69   21  72.9 -99.9 1017.2 -9.9 -9.999 -99.9 -99.99 -9.99
2018/08/20 03:06 EDT    3.54   4.74   18   70   22  73.0 -99.9 1017.2 -9.9 -9.999 -99.9 -99.99 -9.99
2018/08/20 03:12 EDT    3.62   4.82   19   69   21  72.9 -99.9 1017.2 -9.9 -9.999 -99.9 -99.99 -9.99
2018/08/20 03:18 EDT    3.68   4.87   17   72   19  73.0 -99.9 1017.5 -9.9 -9.999 -99.9 -99.99 -9.99
2018/08/20 03:24 EDT    3.75   4.93   17   70   18  73.0 -99.9 1017.5 -9.9 -9.999 -99.9 -99.99 -9.99
2018/08/20 03:30 EDT    3.81   4.97   17   70   18  73.0 -99.9 1017.5 -9.9 -9.999 -99.9 -99.99 -9.99
2018/08/20 03:36 EDT    3.87   5.03   16   65   18  73.0 -99.9 1017.5 -9.9 -9.999 -99.9 -99.99 -9.99
2018/08/20 03:42 EDT    3.93   5.08   15   68   18  73.4 -99.9 1017.7 -9.9 -9.999 -99.9 -99.99 -9.99
2018/08/20 03:48 EDT    3.98   5.13   15   68   18  73.4 -99.9 1017.7 -9.9 -9.999 -99.9 -99.99 -9.99
2018/08/20 03:54 EDT    4.03   5.19   16   66   18  73.2 -99.9 1017.7 -9.9 -9.999 -99.9 -99.99 -9.99
2018/08/20 04:00 EDT    4.08   5.21   16   68   19  73.4 -99.9 1017.6 -9.9 -9.999 -99.9 -99.99 -9.99
2018/08/20 04:06 EDT    4.12   5.25   15   69   18  73.4 -99.9 1017.7 -9.9 -9.999 -99.9 -99.99 -9.99
2018/08/20 04:12 EDT    4.15   5.30   15   69   18  73.4 -99.9 1017.7 -9.9 -9.999 -99.9 -99.99 -9.99
2018/08/20 04:18 EDT    4.19   5.34   15   70   17  73.4 -99.9 1017.7 -9.9 -9.999 -99.9 -99.99 -9.99
2018/08/20 04:24 EDT    4.21   5.35   13   68   16  73.2 -99.9 1017.6 -9.9 -9.999 -99.9 -99.99 -9.99
2018/08/20 04:30 EDT    4.24   5.38   16   65   18  73.2 -99.9 1017.5 -9.9 -9.999 -99.9 -99.99 -9.99
2018/08/20 04:36 EDT    4.26   5.43   17   68   20  73.0 -99.9 1017.6 -9.9 -9.999 -99.9 -99.99 -9.99
2018/08/20 04:42 EDT    4.27   5.42   17   67   19  73.0 -99.9 1017.7 -9.9 -9.999 -99.9 -99.99 -9.99
2018/08/20 04:48 EDT    4.28   5.42   17   69   19  72.9 -99.9 1017.6 -9.9 -9.999 -99.9 -99.99 -9.99
2018/08/20 04:54 EDT    4.28   5.46   17   66   19  72.9 -99.9 1017.6 -9.9 -9.999 -99.9 -99.99 -9.99
2018/08/20 05:00 EDT    4.28   5.48   18   74   19  72.7 -99.9 1017.7 -9.9 -9.999 -99.9 -99.99 -9.99
2018/08/20 05:06 EDT    4.28   5.46   16   69   18  72.7 -99.9 1017.8 -9.9 -9.999 -99.9 -99.99 -9.99
2018/08/20 05:12 EDT    4.27   5.47   16   69   18  72.7 -99.9 1017.8 -9.9 -9.999 -99.9 -99.99 -9.99
2018/08/20 05:18 EDT    4.25   5.41   17   65   18  72.5 -99.9 1017.6 -9.9 -9.999 -99.9 -99.99 -9.99
2018/08/20 05:24 EDT    4.23   5.43   18   64   20  72.3 -99.9 1017.5 -9.9 -9.999 -99.9 -99.99 -9.99
2018/08/20 05:30 EDT    4.21   5.38   17   61   20  72.3 -99.9 1017.5 -9.9 -9.999 -99.9 -99.99 -9.99
2018/08/20 05:36 EDT    4.18   5.35   18   60   20  72.3 -99.9 1017.6 -9.9 -9.999 -99.9 -99.99 -9.99
2018/08/20 05:42 EDT    4.15   5.33   18   58   20  72.1 -99.9 1017.6 -9.9 -9.999 -99.9 -99.99 -9.99
2018/08/20 05:48 EDT    4.11   5.28   18   58   20  72.1 -99.9 1017.6 -9.9 -9.999 -99.9 -99.99 -9.99
2018/08/20 05:54 EDT    4.07   5.26   19   61   21  72.0 -99.9 1017.7 -9.9 -9.999 -99.9 -99.99 -9.99
2018/08/20 06:00 EDT    4.03   5.19   20   59   22  72.1 -99.9 1017.8 -9.9 -9.999 -99.9 -99.99 -9.99
2018/08/20 06:06 EDT    3.98   5.14   19   57   21  72.1 -99.9 1017.9 -9.9 -9.999 -99.9 -99.99 -9.99
2018/08/20 06:12 EDT    3.93   5.09   20   61   22  72.1 -99.9 1017.7 -9.9 -9.999 -99.9 -99.99 -9.99
2018/08/20 06:18 EDT    3.87   5.01   19   61   21  72.1 -99.9 1017.9 -9.9 -9.999 -99.9 -99.99 -9.99
2018/08/20 06:24 EDT    3.81   4.95   21   57   23  72.0 -99.9 1017.9 -9.9 -9.999 -99.9 -99.99 -9.99
2018/08/20 06:30 EDT    3.75   4.88   19   63   22  72.0 -99.9 1018.0 -9.9 -9.999 -99.9 -99.99 -9.99
2018/08/20 06:36 EDT    3.68   4.80   19   63   22  72.0 -99.9 1018.0 -9.9 -9.999 -99.9 -99.99 -9.99
2018/08/20 06:42 EDT    3.61   4.76   17   51   22  71.8 -99.9 1018.4 -9.9 -9.999 -99.9 -99.99 -9.99
2018/08/20 06:48 EDT    3.54   4.68   18   53   20  71.8 -99.9 1018.5 -9.9 -9.999 -99.9 -99.99 -9.99
2018/08/20 06:54 EDT    3.47   4.59   17   52   20  72.0 -99.9 1018.8 -9.9 -9.999 -99.9 -99.99 -9.99
2018/08/20 07:00 EDT    3.39   4.46   16   53   18  72.0 -99.9 1018.9 -9.9 -9.999 -99.9 -99.99 -9.99
2018/08/20 07:06 EDT    3.31   4.42   15   53   18  72.0 -99.9 1019.1 -9.9 -9.999 -99.9 -99.99 -9.99
2018/08/20 07:12 EDT    3.23   4.34   18   51   19  71.6 -99.9 1019.1 -9.9 -9.999 -99.9 -99.99 -9.99
2018/08/20 07:18 EDT    3.14   4.23   18   51   19  71.6 -99.9 1019.1 -9.9 -9.999 -99.9 -99.99 -9.99
2018/08/20 07:24 EDT    3.05   4.11   17   53   19  71.6 -99.9 1019.1 -9.9 -9.999 -99.9 -99.99 -9.99
2018/08/20 07:30 EDT    2.97   4.04   17   53   19  71.6 -99.9 1019.1 -9.9 -9.999 -99.9 -99.99 -9.99
2018/08/20 07:36 EDT    2.88   3.96   16   52   18  71.4 -99.9 1019.1 -9.9 -9.999 -99.9 -99.99 -9.99
2018/08/20 07:42 EDT    2.78   3.88   18   50   19  71.2 -99.9 1019.0 -9.9 -9.999 -99.9 -99.99 -9.99
2018/08/20 07:48 EDT    2.69   3.80   18   50   20  71.4 -99.9 1019.0 -9.9 -9.999 -99.9 -99.99 -9.99
2018/08/20 07:54 EDT    2.60   3.70   18   59   20  71.4 -99.9 1019.1 -9.9 -9.999 -99.9 -99.99 -9.99
2018/08/20 08:00 EDT    2.50   3.60   18   59   20  71.4 -99.9 1019.1 -9.9 -9.999 -99.9 -99.99 -9.99
2018/08/20 08:06 EDT    2.40   3.48   19   56   21  71.4 -99.9 1018.8 -9.9 -9.999 -99.9 -99.99 -9.99
2018/08/20 08:12 EDT    2.31   3.45   19   59   21  71.6 -99.9 1018.9 -9.9 -9.999 -99.9 -99.99 -9.99
2018/08/20 08:18 EDT    2.21   3.38   17   61   20  71.8 -99.9 1018.9 -9.9 -9.999 -99.9 -99.99 -9.99
2018/08/20 08:24 EDT    2.11   3.28   19   58   21  71.8 -99.9 1019.0 -9.9 -9.999 -99.9 -99.99 -9.99
2018/08/20 08:30 EDT    2.02   3.20   19   58   21  71.8 -99.9 1019.0 -9.9 -9.999 -99.9 -99.99 -9.99
2018/08/20 08:36 EDT    1.92   3.10   19   64   21  71.6 -99.9 1018.9 -9.9 -9.999 -99.9 -99.99 -9.99
2018/08/20 08:42 EDT    1.83   3.01   17   66   21  72.0 -99.9 1018.9 -9.9 -9.999 -99.9 -99.99 -9.99
2018/08/20 08:48 EDT    1.74   2.89   18   64   20  72.0 -99.9 1018.9 -9.9 -9.999 -99.9 -99.99 -9.99
2018/08/20 08:54 EDT    1.65   2.81   18   64   20  72.0 -99.9 1018.9 -9.9 -9.999 -99.9 -99.99 -9.99
2018/08/20 09:00 EDT    1.56   2.70   17   62   19  72.1 -99.9 1019.0 -9.9 -9.999 -99.9 -99.99 -9.99
2018/08/20 09:06 EDT    1.47   2.61   17   62   19  72.1 -99.9 1019.0 -9.9 -9.999 -99.9 -99.99 -9.99
2018/08/20 09:12 EDT    1.39   2.51   17   62   19  72.3 -99.9 1019.0 -9.9 -9.999 -99.9 -99.99 -9.99
2018/08/20 09:18 EDT    1.31   2.43   17   62   20  72.5 -99.9 1019.1 -9.9 -9.999 -99.9 -99.99 -9.99
2018/08/20 09:24 EDT    1.24   2.34   17   62   20  72.5 -99.9 1019.1 -9.9 -9.999 -99.9 -99.99 -9.99
2018/08/20 09:30 EDT    1.17   2.24   17   69   19  72.9 -99.9 1019.2 -9.9 -9.999 -99.9 -99.99 -9.99
2018/08/20 09:36 EDT    1.10   2.18   15   68   18  72.7 -99.9 1019.2 -9.9 -9.999 -99.9 -99.99 -9.99
2018/08/20 09:42 EDT    1.04   2.14   16   68   18  73.0 -99.9 1019.1 -9.9 -9.999 -99.9 -99.99 -9.99
2018/08/20 09:48 EDT    0.98   2.07   17   77   18  73.4 -99.9 1019.1 -9.9 -9.999 -99.9 -99.99 -9.99
2018/08/20 09:54 EDT    0.92   2.03   16   79   20  73.4 -99.9 1019.1 -9.9 -9.999 -99.9 -99.99 -9.99
2018/08/20 10:00 EDT    0.88   1.94   16   79   20  73.4 -99.9 1019.1 -9.9 -9.999 -99.9 -99.99 -9.99
2018/08/20 10:06 EDT    0.83   1.88   15   81   17  73.8 -99.9 1019.2 -9.9 -9.999 -99.9 -99.99 -9.99
2018/08/20 10:12 EDT    0.79   1.83   13   84   17  74.1 -99.9 1019.3 -9.9 -9.999 -99.9 -99.99 -9.99
2018/08/20 10:18 EDT    0.76   1.79   17   87   19  73.8 -99.9 1019.3 -9.9 -9.999 -99.9 -99.99 -9.99
2018/08/20 10:24 EDT    0.73   1.78   14   70   17  73.9 -99.9 1019.4 -9.9 -9.999 -99.9 -99.99 -9.99
2018/08/20 10:30 EDT    0.71   1.77   14   70   17  73.9 -99.9 1019.4 -9.9 -9.999 -99.9 -99.99 -9.99
2018/08/20 10:36 EDT    0.69   1.75   15   76   18  74.1 -99.9 1019.2 -9.9 -9.999 -99.9 -99.99 -9.99
2018/08/20 10:42 EDT    0.68   1.75   13   73   18  74.1 -99.9 1019.4 -9.9 -9.999 -99.9 -99.99 -9.99
2018/08/20 10:48 EDT    0.67   1.71   13   78   17  74.1 -99.9 1019.6 -9.9 -9.999 -99.9 -99.99 -9.99
2018/08/20 10:54 EDT    0.67   1.70   14   67   16  74.1 -99.9 1019.7 -9.9 -9.999 -99.9 -99.99 -9.99
2018/08/20 11:00 EDT    0.67   1.70   14   71   16  74.3 -99.9 1019.7 -9.9 -9.999 -99.9 -99.99 -9.99
2018/08/20 11:06 EDT    0.68   1.71   12   80   15  74.5 -99.9 1019.7 -9.9 -9.999 -99.9 -99.99 -9.99
2018/08/20 11:12 EDT    0.69   1.69   11   73   15  74.7 -99.9 1019.8 -9.9 -9.999 -99.9 -99.99 -9.99
2018/08/20 11:18 EDT    0.71   1.69   13   84   15  74.7 -99.9 1019.7 -9.9 -9.999 -99.9 -99.99 -9.99
2018/08/20 11:24 EDT    0.73   1.71   12   92   14  74.7 -99.9 1019.9 -9.9 -9.999 -99.9 -99.99 -9.99
2018/08/20 11:30 EDT    0.76   1.74   11   88   13  74.8 -99.9 1019.9 -9.9 -9.999 -99.9 -99.99 -9.99
2018/08/20 11:36 EDT    0.79   1.76   12   80   13  75.0 -99.9 1019.8 -9.9 -9.999 -99.9 -99.99 -9.99
2018/08/20 11:42 EDT    0.82   1.78   13   83   15  75.0 -99.9 1019.7 -9.9 -9.999 -99.9 -99.99 -9.99
2018/08/20 11:48 EDT    0.86   1.82   13   78   15  75.2 -99.9 1019.7 -9.9 -9.999 -99.9 -99.99 -9.99
2018/08/20 11:54 EDT    0.90   1.88   13   84   16  75.0 -99.9 1019.6 -9.9 -9.999 -99.9 -99.99 -9.99
2018/08/20 12:00 EDT    0.95   1.97   13   76   16  75.2 -99.9 1019.5 -9.9 -9.999 -99.9 -99.99 -9.99
2018/08/20 12:06 EDT    1.00   2.02   13   76   16  75.2 -99.9 1019.5 -9.9 -9.999 -99.9 -99.99 -9.99
2018/08/20 12:12 EDT    1.06   2.05   15   83   17  75.2 -99.9 1019.6 -9.9 -9.999 -99.9 -99.99 -9.99
2018/08/20 12:18 EDT    1.12   2.10   14   73   16  75.2 -99.9 1019.6 -9.9 -9.999 -99.9 -99.99 -9.99
2018/08/20 12:24 EDT    1.19 -99.99 -999 -999 -999 -99.9 -99.9 -999.9 -9.9 -9.999 -99.9 -99.99 -9.99
2018/08/20 12:30 EDT    1.26 -99.99 -999 -999 -999 -99.9 -99.9 -999.9 -9.9 -9.999 -99.9 -99.99 -9.99
2018/08/20 12:36 EDT    1.33 -99.99 -999 -999 -999 -99.9 -99.9 -999.9 -9.9 -9.999 -99.9 -99.99 -9.99
2018/08/20 12:42 EDT    1.40 -99.99 -999 -999 -999 -99.9 -99.9 -999.9 -9.9 -9.999 -99.9 -99.99 -9.99
2018/08/20 12:48 EDT    1.48 -99.99 -999 -999 -999 -99.9 -99.9 -999.9 -9.9 -9.999 -99.9 -99.99 -9.99
2018/08/20 12:54 EDT    1.57 -99.99 -999 -999 -999 -99.9 -99.9 -999.9 -9.9 -9.999 -99.9 -99.99 -9.99
2018/08/20 13:00 EDT    1.66 -99.99 -999 -999 -999 -99.9 -99.9 -999.9 -9.9 -9.999 -99.9 -99.99 -9.99
2018/08/20 13:06 EDT    1.75 -99.99 -999 -999 -999 -99.9 -99.9 -999.9 -9.9 -9.999 -99.9 -99.99 -9.99
2018/08/20 13:12 EDT    1.84 -99.99 -999 -999 -999 -99.9 -99.9 -999.9 -9.9 -9.999 -99.9 -99.99 -9.99
2018/08/20 13:18 EDT    1.93 -99.99 -999 -999 -999 -99.9 -99.9 -999.9 -9.9 -9.999 -99.9 -99.99 -9.99
2018/08/20 13:24 EDT    2.03 -99.99 -999 -999 -999 -99.9 -99.9 -999.9 -9.9 -9.999 -99.9 -99.99 -9.99
2018/08/20 13:30 EDT    2.13 -99.99 -999 -999 -999 -99.9 -99.9 -999.9 -9.9 -9.999 -99.9 -99.99 -9.99
2018/08/20 13:36 EDT    2.24 -99.99 -999 -999 -999 -99.9 -99.9 -999.9 -9.9 -9.999 -99.9 -99.99 -9.99
2018/08/20 13:42 EDT    2.34 -99.99 -999 -999 -999 -99.9 -99.9 -999.9 -9.9 -9.999 -99.9 -99.99 -9.99
2018/08/20 13:48 EDT    2.45 -99.99 -999 -999 -999 -99.9 -99.9 -999.9 -9.9 -9.999 -99.9 -99.99 -9.99
2018/08/20 13:54 EDT    2.55 -99.99 -999 -999 -999 -99.9 -99.9 -999.9 -9.9 -9.999 -99.9 -99.99 -9.99
2018/08/20 14:00 EDT    2.66 -99.99 -999 -999 -999 -99.9 -99.9 -999.9 -9.9 -9.999 -99.9 -99.99 -9.99
2018/08/20 14:06 EDT    2.77 -99.99 -999 -999 -999 -99.9 -99.9 -999.9 -9.9 -9.999 -99.9 -99.99 -9.99
2018/08/20 14:12 EDT    2.88 -99.99 -999 -999 -999 -99.9 -99.9 -999.9 -9.9 -9.999 -99.9 -99.99 -9.99
2018/08/20 14:18 EDT    2.98 -99.99 -999 -999 -999 -99.9 -99.9 -999.9 -9.9 -9.999 -99.9 -99.99 -9.99
2018/08/20 14:24 EDT    3.09 -99.99 -999 -999 -999 -99.9 -99.9 -999.9 -9.9 -9.999 -99.9 -99.99 -9.99
2018/08/20 14:30 EDT    3.20 -99.99 -999 -999 -999 -99.9 -99.9 -999.9 -9.9 -9.999 -99.9 -99.99 -9.99
2018/08/20 14:36 EDT    3.31 -99.99 -999 -999 -999 -99.9 -99.9 -999.9 -9.9 -9.999 -99.9 -99.99 -9.99
2018/08/20 14:42 EDT    3.41 -99.99 -999 -999 -999 -99.9 -99.9 -999.9 -9.9 -9.999 -99.9 -99.99 -9.99
2018/08/20 14:48 EDT    3.52 -99.99 -999 -999 -999 -99.9 -99.9 -999.9 -9.9 -9.999 -99.9 -99.99 -9.99
2018/08/20 14:54 EDT    3.62 -99.99 -999 -999 -999 -99.9 -99.9 -999.9 -9.9 -9.999 -99.9 -99.99 -9.99
2018/08/20 15:00 EDT    3.72 -99.99 -999 -999 -999 -99.9 -99.9 -999.9 -9.9 -9.999 -99.9 -99.99 -9.99
2018/08/20 15:06 EDT    3.82 -99.99 -999 -999 -999 -99.9 -99.9 -999.9 -9.9 -9.999 -99.9 -99.99 -9.99
2018/08/20 15:12 EDT    3.92 -99.99 -999 -999 -999 -99.9 -99.9 -999.9 -9.9 -9.999 -99.9 -99.99 -9.99
2018/08/20 15:18 EDT    4.01 -99.99 -999 -999 -999 -99.9 -99.9 -999.9 -9.9 -9.999 -99.9 -99.99 -9.99
2018/08/20 15:24 EDT    4.10 -99.99 -999 -999 -999 -99.9 -99.9 -999.9 -9.9 -9.999 -99.9 -99.99 -9.99
2018/08/20 15:30 EDT    4.19 -99.99 -999 -999 -999 -99.9 -99.9 -999.9 -9.9 -9.999 -99.9 -99.99 -9.99
2018/08/20 15:36 EDT    4.28 -99.99 -999 -999 -999 -99.9 -99.9 -999.9 -9.9 -9.999 -99.9 -99.99 -9.99
2018/08/20 15:42 EDT    4.36 -99.99 -999 -999 -999 -99.9 -99.9 -999.9 -9.9 -9.999 -99.9 -99.99 -9.99
2018/08/20 15:48 EDT    4.44 -99.99 -999 -999 -999 -99.9 -99.9 -999.9 -9.9 -9.999 -99.9 -99.99 -9.99
2018/08/20 15:54 EDT    4.52 -99.99 -999 -999 -999 -99.9 -99.9 -999.9 -9.9 -9.999 -99.9 -99.99 -9.99
2018/08/20 16:00 EDT    4.59 -99.99 -999 -999 -999 -99.9 -99.9 -999.9 -9.9 -9.999 -99.9 -99.99 -9.99
2018/08/20 16:06 EDT    4.66 -99.99 -999 -999 -999 -99.9 -99.9 -999.9 -9.9 -9.999 -99.9 -99.99 -9.99
2018/08/20 16:12 EDT    4.72 -99.99 -999 -999 -999 -99.9 -99.9 -999.9 -9.9 -9.999 -99.9 -99.99 -9.99
2018/08/20 16:18 EDT    4.78 -99.99 -999 -999 -999 -99.9 -99.9 -999.9 -9.9 -9.999 -99.9 -99.99 -9.99
2018/08/20 16:24 EDT    4.84 -99.99 -999 -999 -999 -99.9 -99.9 -999.9 -9.9 -9.999 -99.9 -99.99 -9.99
2018/08/20 16:30 EDT    4.89 -99.99 -999 -999 -999 -99.9 -99.9 -999.9 -9.9 -9.999 -99.9 -99.99 -9.99
2018/08/20 16:36 EDT    4.94 -99.99 -999 -999 -999 -99.9 -99.9 -999.9 -9.9 -9.999 -99.9 -99.99 -9.99
2018/08/20 16:42 EDT    4.98 -99.99 -999 -999 -999 -99.9 -99.9 -999.9 -9.9 -9.999 -99.9 -99.99 -9.99
2018/08/20 16:48 EDT    5.02 -99.99 -999 -999 -999 -99.9 -99.9 -999.9 -9.9 -9.999 -99.9 -99.99 -9.99
2018/08/20 16:54 EDT    5.05 -99.99 -999 -999 -999 -99.9 -99.9 -999.9 -9.9 -9.999 -99.9 -99.99 -9.99
2018/08/20 17:00 EDT    5.07 -99.99 -999 -999 -999 -99.9 -99.9 -999.9 -9.9 -9.999 -99.9 -99.99 -9.99
2018/08/20 17:06 EDT    5.10 -99.99 -999 -999 -999 -99.9 -99.9 -999.9 -9.9 -9.999 -99.9 -99.99 -9.99
2018/08/20 17:12 EDT    5.11 -99.99 -999 -999 -999 -99.9 -99.9 -999.9 -9.9 -9.999 -99.9 -99.99 -9.99
2018/08/20 17:18 EDT    5.12 -99.99 -999 -999 -999 -99.9 -99.9 -999.9 -9.9 -9.999 -99.9 -99.99 -9.99
2018/08/20 17:24 EDT    5.13 -99.99 -999 -999 -999 -99.9 -99.9 -999.9 -9.9 -9.999 -99.9 -99.99 -9.99
2018/08/20 17:30 EDT    5.13 -99.99 -999 -999 -999 -99.9 -99.9 -999.9 -9.9 -9.999 -99.9 -99.99 -9.99
2018/08/20 17:36 EDT    5.13 -99.99 -999 -999 -999 -99.9 -99.9 -999.9 -9.9 -9.999 -99.9 -99.99 -9.99
2018/08/20 17:42 EDT    5.12 -99.99 -999 -999 -999 -99.9 -99.9 -999.9 -9.9 -9.999 -99.9 -99.99 -9.99
2018/08/20 17:48 EDT    5.10 -99.99 -999 -999 -999 -99.9 -99.9 -999.9 -9.9 -9.999 -99.9 -99.99 -9.99
2018/08/20 17:54 EDT    5.08 -99.99 -999 -999 -999 -99.9 -99.9 -999.9 -9.9 -9.999 -99.9 -99.99 -9.99
2018/08/20 18:00 EDT    5.05 -99.99 -999 -999 -999 -99.9 -99.9 -999.9 -9.9 -9.999 -99.9 -99.99 -9.99
2018/08/20 18:06 EDT    5.02 -99.99 -999 -999 -999 -99.9 -99.9 -999.9 -9.9 -9.999 -99.9 -99.99 -9.99
2018/08/20 18:12 EDT    4.99 -99.99 -999 -999 -999 -99.9 -99.9 -999.9 -9.9 -9.999 -99.9 -99.99 -9.99
2018/08/20 18:18 EDT    4.95 -99.99 -999 -999 -999 -99.9 -99.9 -999.9 -9.9 -9.999 -99.9 -99.99 -9.99
2018/08/20 18:24 EDT    4.90 -99.99 -999 -999 -999 -99.9 -99.9 -999.9 -9.9 -9.999 -99.9 -99.99 -9.99
2018/08/20 18:30 EDT    4.85 -99.99 -999 -999 -999 -99.9 -99.9 -999.9 -9.9 -9.999 -99.9 -99.99 -9.99

Revised: 10/15/2013
NOAA / National Ocean Service
Web site owner: Center for Operational Oceanographic Products and Services